Share

Atqasuk, AK

6:49 PM AKDT on April 23, 2014 (GMT -0800)
Atqasuk Edward Burnell Sr Mem (PATQ) Elev 95 ft | 70.47 °N, 157.44 °W | Change Station

Current weather conditions updated 53 minutes ago

Light Snow
Light Snow
24 °F
Feels Like 14 °F
N
9
Wind Variable Wind from NE
Sunrise 5:37 AM
Sunset 11:21 PM
Moon Waning Crescent

Tomorrow is forecast to be Much Cooler than today.

Pressure 29.94 in
Visibility 10.0 miles
Clouds Mostly Cloudy 1000 ft
Overcast 3100 ft
Windchill 14 °F
Dew Point 22 °F
Humidity 92%
Rainfall 0.00 in
Snow Depth Not available.
UV 1 out of 16
Pollen Not available.
Air Quality Not available.
Flu Activity Sporadic
METAR PATQ 240156Z AUTO 04008KT 10SM -SN BKN010 OVC031 M04/M06 A2992 RMK AO2 TSNO T10441055 SNB0057 P0000 SLP139 $

More Conditions Fewer Conditions

Pressure 29.94 in
Visibility 10.0 miles
Clouds Mostly Cloudy 1000 ft
Overcast 3100 ft
Windchill 14 °F
Dew Point 22 °F
Humidity 92%
Rainfall 0.00 in
Snow Depth Not available.
UV 1 out of 16
Pollen Not available.
Air Quality Not available.
Flu Activity Sporadic
METAR PATQ 240156Z AUTO 04008KT 10SM -SN BKN010 OVC031 M04/M06 A2992 RMK AO2 TSNO T10441055 SNB0057 P0000 SLP139 $

More Conditions Fewer Conditions

10-Day Weather Forecast

Almanac

Astronomy

Apr. 23, 2014 Rise Set
Actual Time 5:37 AM AKDT 11:21 PM AKDT
Civil Twilight 3:40 AM AKDT 1:28 AM AKDT
Nautical Twilight Sun does not rise Sun does not rise
Astronomical Twilight Sun does not rise Sun does not rise
Moon 5:49 AM AKDT (4/23) 2:20 PM AKDT (4/23)
Length of Visible Light 21h 47m
Length of Day
17h 44m
Tomorrow will be 10m 50s longer.
Waning Crescent, 30% of the Moon is Illuminated
Today
Waning Crescent
Apr 29
New
May 6
First Quarter
May 14
Full
May 21
Last Quarter

Today's Extremes

State Highs State Lows

Community

  • Nestled In
    Nestled In
  • Stunning Sunrise
    Stunning Sunrise
  • spring flowers
    spring flowers
  • Earth Day Spectrum Ove' Blue
    Earth Day Spectrum Ove' Blue
  • BARN B&W
    BARN B&W

WunderPhotos

Upload Photos

1,704,525 photos uploaded!

WunderBlogs® & News

Nearby

Snow Depth

Station Depth Elevation
Imnaviat Creek 25 in 3050 ft
Atigun Pass 36 in 4800 ft
Coldfoot 20 in 1040 ft
Gobblers Knob 6 in 2030 ft
Fort Yukon 14 in 430 ft

Coastal Water Temperatures

Place Temperature
No Stations Reporting

Earthquake Activity

City Distance Mag. Time & Date
No recent earthquake activity has been reported nearby.
Minimum magnitude displayed is 2.5.

Nearby Weather Stations

Station Location Temp. Windchill Dew Point Humidity Wind Precip. Elev Updated Type
HADS MEADE RIVER NEAR ATKASUK 1N , Atqasuk, AK 25 °F 25 °F - - North  at  - 0.00 in / hr 49 ft 5:00 PM AKDT MADIS

Show More Stations Show Fewer Stations

What do you think?

We're not finished. Please let us know what you like, what you don't like, and what you are still missing.